Martinsburg, Missouri
Current Conditions -  °F | °C
As of 11:54 AM on Thursday 29 Jan 2015 (Local Time) from KCOU Reporting Station
Overcast Overcast  
Wind Chill: -1°   Ceiling: 3000
Heat Index:   Visibility: 10mi
Dew Point: -2°   Wind: 18mph
Humidity: 63%   Direction: 300°WNW
Pressure: 30.23"   Gusts: NA
Location:  39.1°N, 91.65°W
Report Text: KCOU 291754Z 30016KT 10SM OVC030 04/M02 A3023 RMK AO2 PK WND 33029/1725 SLP238 T00441022 10050 20039 51027
Loading
Personal Weather Stations






























Interactive Weather Map New forecast layout! Learn more

10-Day Weather Forecast

Advertisements
Track Severe Weather on mobile